Time;durP1;ratioP1;P1;durP2;ratioP2;P2;SDS_P1;SDS_P2;PMS_P1;PMS_P2;Temp;Humidity;BMP_temperature;BMP_pressure;BME280_temperature;BME280_humidity;BME280_pressure;Samples;Min_cycle;Max_cycle;Signal;HPM_P1;HPM_P2
2022/12/10 00:09:02;;;;;;;1.20;1.10;;;;;;;15.86;77.92;100457.56;20919368;28;20114;-88
2022/12/10 00:19:04;;;;;;;1.20;1.10;;;;;;;15.87;77.85;100453.03;20938632;28;20138;-87
2022/12/10 00:29:07;;;;;;;1.63;1.15;;;;;;;15.86;77.76;100454.00;20926034;28;20059;-88
2022/12/10 00:39:11;;;;;;;1.42;1.10;;;;;;;15.86;77.95;100459.38;20945094;28;20048;-89
2022/12/10 00:49:13;;;;;;;1.15;1.05;;;;;;;15.85;77.66;100461.22;20942816;28;20044;-88
2022/12/10 00:59:14;;;;;;;1.20;1.10;;;;;;;15.86;77.79;100470.13;20917257;28;20048;-88
2022/12/10 01:09:19;;;;;;;1.40;1.30;;;;;;;15.85;77.58;100476.47;20921740;28;20079;-88
2022/12/10 01:19:21;;;;;;;1.40;1.20;;;;;;;15.55;77.52;100433.38;20919174;28;20036;-88
2022/12/10 01:29:22;;;;;;;1.48;1.10;;;;;;;15.86;77.41;100484.41;20940127;28;20770;-88
2022/12/10 01:39:24;;;;;;;1.23;1.13;;;;;;;15.86;77.49;100489.78;20902298;28;20047;-88
2022/12/10 01:49:38;;;;;;;1.60;1.25;;;;;;;15.79;77.48;100477.88;20918750;28;20041;-88
2022/12/10 01:59:40;;;;;;;1.88;1.55;;;;;;;15.55;77.43;100443.28;20895753;28;20064;-86
2022/12/10 02:09:53;;;;;;;1.60;1.23;;;;;;;15.55;77.25;100438.75;20918882;28;20060;-87
2022/12/10 02:20:01;;;;;;;1.60;1.20;;;;;;;15.87;77.44;100482.56;20918664;28;20040;-88
2022/12/10 02:30:03;;;;;;;1.55;1.33;;;;;;;15.76;77.14;100462.88;20916292;28;20501;-88
2022/12/10 02:40:11;;;;;;;1.20;1.10;;;;;;;15.86;77.19;100483.53;20899397;28;20055;-87
2022/12/10 02:50:18;;;;;;;1.38;1.10;;;;;;;15.86;77.23;100479.03;20897545;28;20044;-88
2022/12/10 03:00:24;;;;;;;1.95;1.50;;;;;;;15.87;77.02;100471.81;20915001;28;20141;-90
2022/12/10 03:10:49;;;;;;;1.42;1.20;;;;;;;15.87;77.04;100471.81;20903088;28;20687;-87
2022/12/10 03:20:52;;;;;;;1.50;1.25;;;;;;;15.62;76.90;100431.03;20930133;28;20127;-88
2022/12/10 03:30:55;;;;;;;1.45;1.33;;;;;;;15.87;76.92;100466.44;20945398;28;20069;-88
2022/12/10 03:40:56;;;;;;;1.55;1.33;;;;;;;15.42;76.63;100409.44;20916173;28;20091;-87
2022/12/10 03:50:59;;;;;;;1.70;1.45;;;;;;;15.41;76.87;100405.03;20931681;28;20059;-89
2022/12/10 04:01:00;;;;;;;2.13;1.40;;;;;;;15.87;76.68;100474.50;20942136;28;20525;-88
2022/12/10 04:11:07;;;;;;;1.42;1.30;;;;;;;15.86;76.72;100467.44;20952793;28;20115;-88
2022/12/10 04:31:29;;;;;;;1.75;1.52;;;;;;;15.81;76.27;100487.47;20938672;28;20048;-88
2022/12/10 04:41:30;;;;;;;2.13;1.30;;;;;;;15.86;76.41;100494.28;20939113;28;20053;-90
2022/12/10 04:51:32;;;;;;;1.90;1.40;;;;;;;15.86;76.50;100491.59;20924318;28;20056;-90
2022/12/10 05:01:34;;;;;;;1.48;1.35;;;;;;;15.87;76.34;100485.22;20923777;28;20578;-90
2022/12/10 05:11:35;;;;;;;2.33;1.50;;;;;;;15.65;76.19;100457.59;20941485;28;20052;-90
2022/12/10 05:31:57;;;;;;;2.10;1.58;;;;;;;15.63;76.03;100459.56;20937726;28;20044;-88
2022/12/10 05:41:58;;;;;;;1.40;1.30;;;;;;;15.85;76.26;100490.75;20938108;28;20060;-88
2022/12/10 05:52:00;;;;;;;1.70;1.60;;;;;;;15.85;76.23;100493.44;20937142;28;20067;-87
2022/12/10 06:02:01;;;;;;;1.98;1.55;;;;;;;15.49;75.94;100471.47;20937320;28;20054;-87
2022/12/10 06:12:03;;;;;;;1.90;1.65;;;;;;;15.66;75.95;100496.84;20945981;28;20056;-87
2022/12/10 06:22:05;;;;;;;2.25;1.80;;;;;;;15.86;75.85;100521.13;20956643;28;20070;-87
2022/12/10 06:32:07;;;;;;;1.80;1.70;;;;;;;15.60;75.96;100505.44;20939737;28;20118;-88
2022/12/10 06:42:08;;;;;;;1.85;1.65;;;;;;;15.86;75.89;100543.47;20923775;28;20511;-87
2022/12/10 06:52:10;;;;;;;2.17;1.70;;;;;;;15.86;75.68;100547.97;20942934;28;20052;-87
2022/12/10 07:02:12;;;;;;;2.10;1.90;;;;;;;15.85;75.73;100551.63;20949937;28;20508;-87
2022/12/10 07:12:14;;;;;;;2.17;1.60;;;;;;;15.85;75.71;100570.41;20951962;28;20062;-83
2022/12/10 07:22:16;;;;;;;1.60;1.42;;;;;;;15.85;75.62;100562.38;20950276;28;20060;-88
2022/12/10 07:32:17;;;;;;;2.50;2.00;;;;;;;15.61;75.22;100524.06;20938106;28;20052;-88
2022/12/10 07:42:19;;;;;;;2.35;1.80;;;;;;;15.55;75.23;100526.44;20952785;28;20044;-92
2022/12/10 07:52:20;;;;;;;2.47;2.08;;;;;;;15.78;75.13;100562.88;20936439;28;20088;-94
2022/12/10 08:02:22;;;;;;;3.22;2.45;;;;;;;15.76;75.08;100572.91;20922371;28;20044;-85
2022/12/10 08:12:23;;;;;;;2.97;2.55;;;;;;;15.68;74.95;100577.22;20943823;28;20071;-91
2022/12/10 08:22:25;;;;;;;4.05;2.60;;;;;;;15.92;75.05;100601.19;20960223;28;20094;-93
2022/12/10 08:32:27;;;;;;;3.20;2.30;;;;;;;15.71;74.83;100580.50;20927144;28;20511;-87
2022/12/10 08:42:29;;;;;;;3.33;2.58;;;;;;;15.91;75.09;100602.16;20937617;28;20452;-88
2022/12/10 08:52:30;;;;;;;3.45;2.58;;;;;;;15.80;75.27;100593.13;20937732;28;20048;-87
2022/12/10 09:02:32;;;;;;;4.13;2.40;;;;;;;15.79;75.38;100604.84;20929532;28;20056;-83
2022/12/10 09:12:34;;;;;;;2.72;2.25;;;;;;;15.78;75.62;100611.22;20919562;28;20115;-93
2022/12/10 09:22:36;;;;;;;3.92;2.40;;;;;;;15.91;75.72;100654.00;20914351;28;20497;-88
2022/12/10 09:32:38;;;;;;;3.75;2.35;;;;;;;15.92;75.80;100638.78;20914245;28;20062;-85
2022/12/10 09:43:24;;;;;;;3.60;2.10;;;;;;;15.23;76.08;100536.19;20909929;28;20064;-90
2022/12/10 09:53:28;;;;;;;5.68;3.28;;;;;;;15.48;76.16;100588.66;20923452;28;20056;-89
2022/12/10 10:03:38;;;;;;;5.05;2.80;;;;;;;15.66;77.66;100594.28;20897239;28;20075;-88
2022/12/10 10:13:42;;;;;;;6.72;3.22;;;;;;;16.20;79.66;100700.84;20890156;28;20048;-84
2022/12/10 10:23:44;;;;;;;6.60;2.78;;;;;;;16.25;79.35;100687.88;20894651;28;20419;-91
2022/12/10 10:33:56;;;;;;;4.68;2.95;;;;;;;16.29;79.26;100685.81;20905936;28;20044;-91
2022/12/10 10:44:01;;;;;;;4.00;2.60;;;;;;;16.31;79.45;100676.63;20928783;28;20085;-92
2022/12/10 10:54:03;;;;;;;4.20;2.85;;;;;;;16.33;78.91;100669.28;20914784;28;20475;-89
2022/12/10 11:04:09;;;;;;;3.55;2.63;;;;;;;16.18;78.13;100655.34;20900104;28;20049;-90
2022/12/10 11:14:24;;;;;;;4.57;2.70;;;;;;;16.23;78.01;100679.97;20921912;28;20459;-90
2022/12/10 11:24:26;;;;;;;3.17;2.60;;;;;;;16.18;77.92;100675.97;20928681;28;20068;-89
2022/12/10 11:34:53;;;;;;;4.85;3.20;;;;;;;15.83;77.67;100618.00;20937587;28;20052;-91
2022/12/10 11:45:39;;;;;;;3.78;2.92;;;;;;;16.11;77.26;100666.72;20922816;28;20061;-92
2022/12/10 11:55:54;;;;;;;4.32;2.92;;;;;;;16.09;77.38;100662.34;20916070;28;20056;-88
2022/12/10 12:06:02;;;;;;;4.85;3.05;;;;;;;16.07;77.49;100656.25;20927321;28;20051;-89
2022/12/10 12:16:15;;;;;;;6.00;3.70;;;;;;;16.07;77.78;100664.31;20938940;28;20052;-89
2022/12/10 12:26:26;;;;;;;3.63;3.10;;;;;;;15.84;78.38;100619.72;20928842;28;20064;-89
2022/12/10 12:36:30;;;;;;;3.53;2.85;;;;;;;15.94;78.58;100663.66;20943320;28;20151;-88
2022/12/10 12:46:43;;;;;;;4.85;3.20;;;;;;;16.01;78.79;100674.72;20931249;28;20625;-88
2022/12/10 12:56:55;;;;;;;4.40;3.40;;;;;;;16.07;79.25;100676.88;20880044;28;20057;-89
2022/12/10 13:07:15;;;;;;;3.42;3.10;;;;;;;16.07;79.52;100676.88;20861405;28;20524;-89
2022/12/10 13:17:36;;;;;;;4.90;3.33;;;;;;;15.79;79.73;100641.59;20878924;28;20056;-88
2022/12/10 13:27:38;;;;;;;4.18;3.10;;;;;;;16.08;80.08;100681.25;20859901;28;20555;-89
2022/12/10 13:38:04;;;;;;;4.07;3.22;;;;;;;15.81;80.04;100647.69;20876423;28;20068;-89
2022/12/10 13:48:28;;;;;;;4.35;3.53;;;;;;;16.07;80.20;100704.59;20874175;28;20191;-86
2022/12/10 13:58:55;;;;;;;3.85;3.22;;;;;;;16.07;80.48;100706.41;20858406;28;20075;-89
2022/12/10 14:09:04;;;;;;;3.33;2.97;;;;;;;15.87;80.61;100695.50;20874773;28;20051;-88
2022/12/10 14:19:07;;;;;;;4.10;3.15;;;;;;;16.07;80.89;100728.75;20857484;28;20049;-90
2022/12/10 14:29:20;;;;;;;4.95;3.60;;;;;;;15.81;80.83;100691.47;20857860;28;20056;-89
2022/12/10 14:39:33;;;;;;;3.60;2.90;;;;;;;16.06;80.99;100736.94;20858013;28;20541;-89
2022/12/10 14:49:39;;;;;;;5.03;3.75;;;;;;;15.78;80.98;100705.16;20879194;28;20084;-89
2022/12/10 14:59:50;;;;;;;5.47;4.30;;;;;;;15.94;80.99;100744.19;20861427;28;20057;-88
2022/12/10 15:09:53;;;;;;;4.57;3.83;;;;;;;16.06;80.92;100750.34;20854655;28;20106;-89
2022/12/10 15:19:54;;;;;;;4.88;3.83;;;;;;;16.05;81.05;100757.56;20868910;28;20067;-89
2022/12/10 15:29:56;;;;;;;4.70;3.40;;;;;;;16.04;81.02;100758.56;20897259;28;20049;-89
2022/12/10 15:40:00;;;;;;;3.90;3.50;;;;;;;16.05;81.03;100765.63;20898790;28;20048;-88
2022/12/10 15:50:01;;;;;;;4.55;3.53;;;;;;;16.05;80.85;100759.41;20935031;28;20052;-88
2022/12/10 16:00:06;;;;;;;4.30;3.80;;;;;;;15.94;80.81;100744.19;20905974;28;20102;-89
2022/12/10 16:10:17;;;;;;;4.82;3.97;;;;;;;16.03;80.59;100772.97;20924244;28;20097;-86
2022/12/10 16:20:27;;;;;;;4.87;3.47;;;;;;;16.03;80.30;100764.91;20941789;28;20476;-83
2022/12/10 16:30:55;;;;;;;4.72;3.92;;;;;;;15.92;80.11;100763.09;20908640;28;20636;-89
2022/12/10 16:40:57;;;;;;;4.70;4.15;;;;;;;16.02;79.78;100767.72;20917252;28;20044;-86
2022/12/10 16:50:59;;;;;;;4.55;3.58;;;;;;;16.01;79.94;100787.47;20892031;28;20061;-88
2022/12/10 17:01:24;;;;;;;4.78;3.65;;;;;;;15.95;79.23;100791.53;20901171;28;20056;-87
2022/12/10 17:11:47;;;;;;;4.22;3.33;;;;;;;15.99;79.28;100793.00;20909605;28;20137;-88
2022/12/10 17:21:50;;;;;;;4.30;3.50;;;;;;;15.46;78.96;100710.47;20924545;28;20093;-85
2022/12/10 17:31:51;;;;;;;5.28;3.50;;;;;;;15.97;79.00;100804.81;20938248;28;20098;-87
2022/12/10 17:41:53;;;;;;;4.65;3.80;;;;;;;15.98;79.01;100804.72;20910127;28;20131;-84
2022/12/10 17:51:58;;;;;;;5.68;3.97;;;;;;;15.97;79.12;100799.47;20871405;28;20064;-84
2022/12/10 18:02:00;;;;;;;5.00;3.80;;;;;;;15.86;78.93;100778.81;20897310;28;20408;-87
2022/12/10 18:12:01;;;;;;;5.25;4.20;;;;;;;15.41;79.18;100712.69;20904227;28;20513;-86
2022/12/10 18:22:03;;;;;;;5.35;4.10;;;;;;;15.95;79.23;100802.28;20898263;28;20144;-86
2022/12/10 18:32:04;;;;;;;5.78;3.72;;;;;;;15.95;79.18;100810.34;20891701;28;20040;-91
2022/12/10 18:42:07;;;;;;;6.90;3.85;;;;;;;15.84;79.15;100783.47;20919099;28;20040;-87
2022/12/10 18:52:08;;;;;;;4.78;3.88;;;;;;;15.95;79.08;100799.59;20946524;28;20049;-88
2022/12/10 19:02:10;;;;;;;5.70;3.67;;;;;;;15.84;79.05;100780.78;20969546;28;20400;-87
2022/12/10 19:12:12;;;;;;;4.57;3.60;;;;;;;15.94;79.13;100811.31;20968632;28;20051;-88
2022/12/10 19:22:13;;;;;;;5.40;3.75;;;;;;;15.93;79.10;100807.75;20968043;28;20050;-87
2022/12/10 19:32:15;;;;;;;4.95;3.70;;;;;;;15.92;79.13;100799.84;20967970;28;20052;-87
2022/12/10 19:42:16;;;;;;;4.72;3.55;;;;;;;15.91;78.97;100809.72;20940637;28;20102;-85
2022/12/10 19:52:18;;;;;;;4.78;3.40;;;;;;;15.92;79.16;100811.44;20965668;28;20950;-87
2022/12/10 20:02:19;;;;;;;4.95;3.17;;;;;;;15.73;78.79;100795.94;20948307;28;20075;-87
2022/12/10 20:12:21;;;;;;;4.55;3.80;;;;;;;15.93;79.00;100833.78;20947210;28;20045;-87
2022/12/10 20:22:22;;;;;;;5.07;3.60;;;;;;;15.92;78.94;100835.59;20950041;28;20109;-87
2022/12/10 20:32:24;;;;;;;3.85;3.15;;;;;;;15.38;78.84;100754.03;21044961;28;20062;-87
2022/12/10 20:42:25;;;;;;;5.35;3.60;;;;;;;15.92;78.73;100837.44;20936351;28;20051;-88
2022/12/10 20:52:27;;;;;;;4.47;3.33;;;;;;;15.92;78.69;100840.97;20959738;28;20052;-87
2022/12/10 21:02:28;;;;;;;4.50;3.03;;;;;;;15.94;78.89;100840.84;20959420;28;20056;-87
2022/12/10 21:12:30;;;;;;;3.35;3.00;;;;;;;15.81;78.73;100804.22;20959680;28;20539;-86
2022/12/10 21:22:32;;;;;;;4.93;3.50;;;;;;;15.93;78.79;100825.72;20959118;28;20512;-87
2022/12/10 21:32:33;;;;;;;4.10;3.05;;;;;;;15.57;78.55;100774.00;20934621;28;20056;-87
2022/12/10 21:52:55;;;;;;;3.67;3.00;;;;;;;15.93;78.47;100833.78;20959032;28;20497;-88
2022/12/10 22:02:57;;;;;;;3.65;2.95;;;;;;;15.95;78.51;100842.56;20958748;28;20544;-88
2022/12/10 22:12:58;;;;;;;3.83;3.10;;;;;;;15.55;78.28;100784.84;20940859;28;20049;-87
2022/12/10 22:23:00;;;;;;;3.70;2.80;;;;;;;15.74;78.45;100804.84;20956011;28;20076;-87
2022/12/10 22:33:02;;;;;;;3.35;2.75;;;;;;;15.93;78.34;100839.97;20947477;28;20106;-88
2022/12/10 22:43:03;;;;;;;4.03;3.03;;;;;;;15.93;78.40;100844.53;20956054;28;20079;-87
2022/12/10 22:53:25;;;;;;;3.30;2.72;;;;;;;15.94;78.30;100840.84;20939323;28;20131;-87
2022/12/10 23:03:27;;;;;;;3.80;2.92;;;;;;;15.84;78.33;100824.59;20955416;28;20053;-87
2022/12/10 23:13:29;;;;;;;2.92;2.42;;;;;;;15.94;78.24;100830.13;20936517;28;20052;-87
2022/12/10 23:23:38;;;;;;;3.40;2.75;;;;;;;15.77;78.15;100799.22;20960475;28;20136;-88
2022/12/10 23:33:39;;;;;;;4.03;2.78;;;;;;;15.70;78.05;100769.34;20941722;28;20495;-87
2022/12/10 23:43:41;;;;;;;3.03;2.35;;;;;;;15.94;78.07;100814.00;20966339;28;20386;-87
2022/12/10 23:53:42;;;;;;;3.80;2.95;;;;;;;15.64;78.22;100770.69;20948492;28;20036;-87
